sensor_id;sensor_type;location;lat;lon;timestamp;pressure;altitude;pressure_sealevel;temperature;humidity
52469;BME280;38381;53.688;10.776;2023-06-10T00:03:39;101609.63;;;14.07;76.62
52469;BME280;38381;53.688;10.776;2023-06-10T00:08:41;101600.88;;;13.95;77.04
52469;BME280;38381;53.688;10.776;2023-06-10T00:13:42;101599.06;;;13.84;77.01
52469;BME280;38381;53.688;10.776;2023-06-10T00:18:42;101604.28;;;13.84;76.83
52469;BME280;38381;53.688;10.776;2023-06-10T00:23:44;101607.69;;;13.77;77.26
52469;BME280;38381;53.688;10.776;2023-06-10T00:28:45;101594.66;;;13.73;77.03
52469;BME280;38381;53.688;10.776;2023-06-10T00:33:46;101598.09;;;13.72;77.40
52469;BME280;38381;53.688;10.776;2023-06-10T00:38:47;101606.78;;;13.66;77.10
52469;BME280;38381;53.688;10.776;2023-06-10T00:43:47;101598.06;;;13.64;77.12
52469;BME280;38381;53.688;10.776;2023-06-10T00:48:48;101602.22;;;13.40;77.81
52469;BME280;38381;53.688;10.776;2023-06-10T00:53:49;101600.47;;;13.38;78.14
52469;BME280;38381;53.688;10.776;2023-06-10T00:58:50;101597.00;;;13.40;77.87
52469;BME280;38381;53.688;10.776;2023-06-10T01:03:51;101598.72;;;13.35;77.79
52469;BME280;38381;53.688;10.776;2023-06-10T01:09:02;101599.44;;;13.23;78.61
52469;BME280;38381;53.688;10.776;2023-06-10T01:14:05;101611.69;;;13.31;78.58
52469;BME280;38381;53.688;10.776;2023-06-10T01:19:07;101607.28;;;13.28;78.17
52469;BME280;38381;53.688;10.776;2023-06-10T01:24:08;101609.81;;;13.19;78.21
52469;BME280;38381;53.688;10.776;2023-06-10T01:29:16;101601.09;;;13.15;78.18
52469;BME280;38381;53.688;10.776;2023-06-10T01:34:18;101603.66;;;13.11;78.14
52469;BME280;38381;53.688;10.776;2023-06-10T01:39:22;101609.69;;;13.08;78.66
52469;BME280;38381;53.688;10.776;2023-06-10T01:44:24;101614.06;;;13.12;78.18
52469;BME280;38381;53.688;10.776;2023-06-10T01:49:24;101611.41;;;13.03;78.92
52469;BME280;38381;53.688;10.776;2023-06-10T01:54:26;101605.22;;;12.93;78.64
52469;BME280;38381;53.688;10.776;2023-06-10T01:59:27;101603.50;;;12.92;79.24
52469;BME280;38381;53.688;10.776;2023-06-10T02:04:27;101602.63;;;12.93;78.70
52469;BME280;38381;53.688;10.776;2023-06-10T02:09:27;101600.03;;;12.95;78.64
52469;BME280;38381;53.688;10.776;2023-06-10T02:14:28;101601.72;;;12.88;78.98
52469;BME280;38381;53.688;10.776;2023-06-10T02:19:28;101606.84;;;12.82;79.71
52469;BME280;38381;53.688;10.776;2023-06-10T02:24:28;101610.25;;;12.76;79.83
52469;BME280;38381;53.688;10.776;2023-06-10T02:29:29;101602.38;;;12.70;79.75
52469;BME280;38381;53.688;10.776;2023-06-10T02:34:29;101600.59;;;12.66;80.39
52469;BME280;38381;53.688;10.776;2023-06-10T02:39:30;101598.88;;;12.68;80.06
52469;BME280;38381;53.688;10.776;2023-06-10T02:44:30;101609.25;;;12.65;80.30
52469;BME280;38381;53.688;10.776;2023-06-10T02:49:31;101602.31;;;12.67;79.79
52469;BME280;38381;53.688;10.776;2023-06-10T02:54:31;101594.47;;;12.62;80.25
52469;BME280;38381;53.688;10.776;2023-06-10T02:59:31;101596.25;;;12.63;81.11
52469;BME280;38381;53.688;10.776;2023-06-10T03:04:32;101592.75;;;12.64;80.21
52469;BME280;38381;53.688;10.776;2023-06-10T03:09:34;101592.69;;;12.58;80.55
52469;BME280;38381;53.688;10.776;2023-06-10T03:14:34;101592.75;;;12.61;80.23
52469;BME280;38381;53.688;10.776;2023-06-10T03:19:37;101597.00;;;12.56;80.77
52469;BME280;38381;53.688;10.776;2023-06-10T03:24:40;101588.41;;;12.62;80.24
52469;BME280;38381;53.688;10.776;2023-06-10T03:29:41;101594.53;;;12.65;80.92
52469;BME280;38381;53.688;10.776;2023-06-10T03:34:41;101591.03;;;12.65;80.65
52469;BME280;38381;53.688;10.776;2023-06-10T03:39:42;101594.53;;;12.68;80.75
52469;BME280;38381;53.688;10.776;2023-06-10T03:44:42;101601.53;;;12.73;81.04
52469;BME280;38381;53.688;10.776;2023-06-10T03:49:43;101603.22;;;12.69;81.29
52469;BME280;38381;53.688;10.776;2023-06-10T03:54:43;101598.84;;;12.66;82.34
52469;BME280;38381;53.688;10.776;2023-06-10T03:59:45;101606.78;;;12.76;82.02
52469;BME280;38381;53.688;10.776;2023-06-10T04:04:45;101608.50;;;12.77;81.30
52469;BME280;38381;53.688;10.776;2023-06-10T04:09:46;101617.28;;;12.85;81.72
52469;BME280;38381;53.688;10.776;2023-06-10T04:14:46;101606.94;;;12.91;81.72
52469;BME280;38381;53.688;10.776;2023-06-10T04:19:47;101607.41;;;13.37;81.48
52469;BME280;38381;53.688;10.776;2023-06-10T04:24:47;101602.75;;;14.17;79.64
52469;BME280;38381;53.688;10.776;2023-06-10T04:29:47;101602.09;;;14.69;77.15
52469;BME280;38381;53.688;10.776;2023-06-10T04:34:48;101603.94;;;15.30;75.71
52469;BME280;38381;53.688;10.776;2023-06-10T04:39:49;101598.72;;;15.79;73.57
52469;BME280;38381;53.688;10.776;2023-06-10T04:44:49;101604.69;;;16.20;72.28
52469;BME280;38381;53.688;10.776;2023-06-10T04:49:49;101604.53;;;16.64;70.49
52469;BME280;38381;53.688;10.776;2023-06-10T04:54:51;101601.69;;;17.07;68.49
52469;BME280;38381;53.688;10.776;2023-06-10T04:59:52;101599.63;;;17.49;67.25
52469;BME280;38381;53.688;10.776;2023-06-10T05:04:53;101597.53;;;17.88;65.76
52469;BME280;38381;53.688;10.776;2023-06-10T05:09:56;101601.44;;;18.26;64.73
52469;BME280;38381;53.688;10.776;2023-06-10T05:14:56;101600.28;;;18.49;63.97
52469;BME280;38381;53.688;10.776;2023-06-10T05:19:57;101595.38;;;18.91;62.84
52469;BME280;38381;53.688;10.776;2023-06-10T05:24:59;101594.28;;;19.04;61.51
52469;BME280;38381;53.688;10.776;2023-06-10T05:29:59;101593.13;;;19.24;60.88
52469;BME280;38381;53.688;10.776;2023-06-10T05:35:01;101603.97;;;19.57;60.04
52469;BME280;38381;53.688;10.776;2023-06-10T05:40:04;101598.28;;;19.81;59.51
52469;BME280;38381;53.688;10.776;2023-06-10T05:45:05;101596.91;;;20.07;58.40
52469;BME280;38381;53.688;10.776;2023-06-10T05:50:06;101598.47;;;20.17;58.15
52469;BME280;38381;53.688;10.776;2023-06-10T05:55:09;101593.31;;;20.11;57.59
52469;BME280;38381;53.688;10.776;2023-06-10T06:00:10;101602.91;;;20.15;57.84
52469;BME280;38381;53.688;10.776;2023-06-10T06:05:10;101601.44;;;20.44;57.49
52469;BME280;38381;53.688;10.776;2023-06-10T06:10:11;101593.25;;;20.56;56.67
52469;BME280;38381;53.688;10.776;2023-06-10T06:15:14;101593.94;;;20.67;55.38
52469;BME280;38381;53.688;10.776;2023-06-10T06:20:14;101590.09;;;20.81;56.08
52469;BME280;38381;53.688;10.776;2023-06-10T06:25:15;101600.22;;;20.18;57.12
52469;BME280;38381;53.688;10.776;2023-06-10T06:30:15;101592.22;;;20.65;56.32
52469;BME280;38381;53.688;10.776;2023-06-10T06:35:16;101594.75;;;21.08;56.16
52469;BME280;38381;53.688;10.776;2023-06-10T06:40:16;101591.88;;;21.18;54.75
52469;BME280;38381;53.688;10.776;2023-06-10T06:45:18;101597.38;;;21.08;55.26
52469;BME280;38381;53.688;10.776;2023-06-10T06:50:18;101597.94;;;21.57;54.62
52469;BME280;38381;53.688;10.776;2023-06-10T06:55:18;101589.91;;;21.62;54.45
52469;BME280;38381;53.688;10.776;2023-06-10T07:00:19;101590.81;;;21.94;53.97
52469;BME280;38381;53.688;10.776;2023-06-10T07:05:20;101591.25;;;22.09;53.03
52469;BME280;38381;53.688;10.776;2023-06-10T07:10:24;101589.75;;;21.68;53.80
52469;BME280;38381;53.688;10.776;2023-06-10T07:15:25;101595.31;;;22.21;53.04
52469;BME280;38381;53.688;10.776;2023-06-10T07:20:25;101600.00;;;22.12;53.57
52469;BME280;38381;53.688;10.776;2023-06-10T07:25:26;101596.47;;;22.44;52.26
52469;BME280;38381;53.688;10.776;2023-06-10T07:30:26;101602.47;;;22.49;52.82
52469;BME280;38381;53.688;10.776;2023-06-10T07:35:27;101605.94;;;22.51;53.16
52469;BME280;38381;53.688;10.776;2023-06-10T07:40:27;101607.28;;;22.35;53.30
52469;BME280;38381;53.688;10.776;2023-06-10T07:45:27;101609.44;;;22.52;53.19
52469;BME280;38381;53.688;10.776;2023-06-10T07:50:29;101605.03;;;22.80;52.70
52469;BME280;38381;53.688;10.776;2023-06-10T07:55:30;101604.53;;;22.67;52.83
52469;BME280;38381;53.688;10.776;2023-06-10T08:00:31;101606.06;;;22.46;54.60
52469;BME280;38381;53.688;10.776;2023-06-10T08:05:33;101607.84;;;22.46;54.21
52469;BME280;38381;53.688;10.776;2023-06-10T08:10:34;101604.94;;;22.25;54.46
52469;BME280;38381;53.688;10.776;2023-06-10T08:15:34;101600.47;;;21.95;54.80
52469;BME280;38381;53.688;10.776;2023-06-10T08:20:35;101607.28;;;22.03;55.52
52469;BME280;38381;53.688;10.776;2023-06-10T08:25:35;101598.50;;;22.03;56.66
52469;BME280;38381;53.688;10.776;2023-06-10T08:30:35;101596.22;;;22.20;55.68
52469;BME280;38381;53.688;10.776;2023-06-10T08:35:36;101604.31;;;22.14;55.87
52469;BME280;38381;53.688;10.776;2023-06-10T08:40:36;101599.38;;;22.02;55.91
52469;BME280;38381;53.688;10.776;2023-06-10T08:45:37;101606.75;;;22.22;57.14
52469;BME280;38381;53.688;10.776;2023-06-10T08:50:39;101606.56;;;22.29;55.50
52469;BME280;38381;53.688;10.776;2023-06-10T08:55:42;101607.78;;;22.47;55.72
52469;BME280;38381;53.688;10.776;2023-06-10T09:00:42;101598.53;;;22.90;55.96
52469;BME280;38381;53.688;10.776;2023-06-10T09:05:43;101605.81;;;22.84;55.68
52469;BME280;38381;53.688;10.776;2023-06-10T09:10:44;101610.44;;;22.77;54.79
52469;BME280;38381;53.688;10.776;2023-06-10T09:15:45;101608.81;;;23.01;54.99
52469;BME280;38381;53.688;10.776;2023-06-10T09:20:46;101609.44;;;23.09;55.38
52469;BME280;38381;53.688;10.776;2023-06-10T09:25:56;101600.28;;;23.46;55.01
52469;BME280;38381;53.688;10.776;2023-06-10T09:31:06;101597.13;;;23.35;54.22
52469;BME280;38381;53.688;10.776;2023-06-10T09:36:09;101592.19;;;23.51;54.91
52469;BME280;38381;53.688;10.776;2023-06-10T09:41:10;101599.75;;;23.62;54.20
52469;BME280;38381;53.688;10.776;2023-06-10T09:46:18;101602.78;;;23.76;52.89
52469;BME280;38381;53.688;10.776;2023-06-10T09:51:19;101594.06;;;23.47;53.95
52469;BME280;38381;53.688;10.776;2023-06-10T09:56:19;101594.75;;;23.79;53.81
52469;BME280;38381;53.688;10.776;2023-06-10T10:01:22;101597.84;;;23.92;52.94
52469;BME280;38381;53.688;10.776;2023-06-10T10:06:23;101589.72;;;23.97;53.37
52469;BME280;38381;53.688;10.776;2023-06-10T10:11:24;101591.97;;;24.07;53.32
52469;BME280;38381;53.688;10.776;2023-06-10T10:16:31;101583.41;;;24.24;53.09
52469;BME280;38381;53.688;10.776;2023-06-10T10:21:39;101590.03;;;24.60;52.58
52469;BME280;38381;53.688;10.776;2023-06-10T10:26:45;101589.88;;;24.63;52.13
52469;BME280;38381;53.688;10.776;2023-06-10T10:31:47;101585.53;;;24.84;52.67
52469;BME280;38381;53.688;10.776;2023-06-10T10:36:50;101585.84;;;24.98;51.39
52469;BME280;38381;53.688;10.776;2023-06-10T10:41:51;101581.63;;;25.15;50.66
52469;BME280;38381;53.688;10.776;2023-06-10T10:46:51;101585.72;;;25.01;49.95
52469;BME280;38381;53.688;10.776;2023-06-10T10:51:59;101578.78;;;24.97;50.11
52469;BME280;38381;53.688;10.776;2023-06-10T11:02:31;101563.47;;;25.67;49.73
52469;BME280;38381;53.688;10.776;2023-06-10T11:07:33;101580.53;;;25.61;48.63
52469;BME280;38381;53.688;10.776;2023-06-10T11:18:24;101573.28;;;25.85;49.02
52469;BME280;38381;53.688;10.776;2023-06-10T11:28:28;101570.72;;;26.23;50.21
52469;BME280;38381;53.688;10.776;2023-06-10T11:33:29;101564.16;;;26.49;49.40
52469;BME280;38381;53.688;10.776;2023-06-10T11:38:30;101556.84;;;26.55;49.75
52469;BME280;38381;53.688;10.776;2023-06-10T11:43:31;101553.56;;;26.68;49.96
52469;BME280;38381;53.688;10.776;2023-06-10T11:48:31;101558.94;;;26.67;49.73
52469;BME280;38381;53.688;10.776;2023-06-10T11:53:34;101555.03;;;26.55;49.71
52469;BME280;38381;53.688;10.776;2023-06-10T11:58:35;101557.50;;;26.60;49.68
52469;BME280;38381;53.688;10.776;2023-06-10T12:03:36;101542.84;;;26.32;50.61
52469;BME280;38381;53.688;10.776;2023-06-10T12:08:41;101541.25;;;26.47;50.15
52469;BME280;38381;53.688;10.776;2023-06-10T12:13:47;101542.38;;;26.79;50.12
52469;BME280;38381;53.688;10.776;2023-06-10T12:18:50;101555.56;;;26.63;50.07
52469;BME280;38381;53.688;10.776;2023-06-10T12:24:10;101557.25;;;26.83;50.06
52469;BME280;38381;53.688;10.776;2023-06-10T12:29:23;101554.81;;;26.79;49.94
52469;BME280;38381;53.688;10.776;2023-06-10T12:34:37;101555.13;;;26.73;49.78
52469;BME280;38381;53.688;10.776;2023-06-10T12:39:39;101556.78;;;26.56;51.15
52469;BME280;38381;53.688;10.776;2023-06-10T12:44:41;101550.72;;;26.53;51.72
52469;BME280;38381;53.688;10.776;2023-06-10T12:49:41;101540.31;;;26.67;51.57
52469;BME280;38381;53.688;10.776;2023-06-10T12:54:42;101528.28;;;26.77;51.50
52469;BME280;38381;53.688;10.776;2023-06-10T12:59:42;101533.78;;;26.92;51.26
52469;BME280;38381;53.688;10.776;2023-06-10T13:04:50;101535.50;;;26.93;51.37
52469;BME280;38381;53.688;10.776;2023-06-10T13:09:51;101535.13;;;27.00;50.69
52469;BME280;38381;53.688;10.776;2023-06-10T13:14:51;101532.66;;;26.78;51.48
52469;BME280;38381;53.688;10.776;2023-06-10T13:19:53;101528.28;;;26.77;50.59
52469;BME280;38381;53.688;10.776;2023-06-10T13:24:54;101523.81;;;26.78;50.66
52469;BME280;38381;53.688;10.776;2023-06-10T13:29:54;101529.16;;;27.13;49.57
52469;BME280;38381;53.688;10.776;2023-06-10T13:34:55;101521.00;;;26.81;51.43
52469;BME280;38381;53.688;10.776;2023-06-10T13:39:55;101510.41;;;26.62;51.39
52469;BME280;38381;53.688;10.776;2023-06-10T13:44:56;101513.06;;;26.62;51.47
52469;BME280;38381;53.688;10.776;2023-06-10T13:49:59;101505.78;;;26.65;50.95
52469;BME280;38381;53.688;10.776;2023-06-10T13:55:00;101504.69;;;26.69;50.51
52469;BME280;38381;53.688;10.776;2023-06-10T14:00:00;101502.03;;;26.69;49.87
52469;BME280;38381;53.688;10.776;2023-06-10T14:05:01;101507.53;;;26.84;49.99
52469;BME280;38381;53.688;10.776;2023-06-10T14:10:01;101495.59;;;26.37;50.40
52469;BME280;38381;53.688;10.776;2023-06-10T14:15:02;101490.25;;;26.56;50.82
52469;BME280;38381;53.688;10.776;2023-06-10T14:20:03;101501.81;;;26.74;50.29
52469;BME280;38381;53.688;10.776;2023-06-10T14:25:05;101503.53;;;26.20;51.58
52469;BME280;38381;53.688;10.776;2023-06-10T14:30:06;101502.72;;;26.37;51.39
52469;BME280;38381;53.688;10.776;2023-06-10T14:35:06;101500.06;;;26.37;50.50
52469;BME280;38381;53.688;10.776;2023-06-10T14:40:07;101504.38;;;26.20;50.92
52469;BME280;38381;53.688;10.776;2023-06-10T14:45:08;101505.66;;;26.30;50.44
52469;BME280;38381;53.688;10.776;2023-06-10T14:50:10;101509.28;;;26.29;50.94
52469;BME280;38381;53.688;10.776;2023-06-10T14:55:10;101510.41;;;26.43;50.18
52469;BME280;38381;53.688;10.776;2023-06-10T15:00:11;101498.16;;;26.21;50.60
52469;BME280;38381;53.688;10.776;2023-06-10T15:05:12;101512.22;;;26.23;51.02
52469;BME280;38381;53.688;10.776;2023-06-10T15:10:12;101506.41;;;26.15;50.96
52469;BME280;38381;53.688;10.776;2023-06-10T15:15:12;101501.38;;;26.09;50.79
52469;BME280;38381;53.688;10.776;2023-06-10T15:20:13;101503.25;;;26.26;50.58
52469;BME280;38381;53.688;10.776;2023-06-10T15:25:14;101501.94;;;26.35;50.36
52469;BME280;38381;53.688;10.776;2023-06-10T15:30:15;101494.34;;;26.08;50.64
52469;BME280;38381;53.688;10.776;2023-06-10T15:35:15;101487.41;;;26.23;51.22
52469;BME280;38381;53.688;10.776;2023-06-10T15:40:15;101485.06;;;25.98;51.76
52469;BME280;38381;53.688;10.776;2023-06-10T15:45:16;101482.56;;;25.95;51.42
52469;BME280;38381;53.688;10.776;2023-06-10T15:50:16;101475.88;;;25.65;51.84
52469;BME280;38381;53.688;10.776;2023-06-10T15:55:17;101473.72;;;25.74;52.31
52469;BME280;38381;53.688;10.776;2023-06-10T16:00:18;101468.22;;;25.78;52.20
52469;BME280;38381;53.688;10.776;2023-06-10T16:05:18;101470.91;;;25.97;52.26
52469;BME280;38381;53.688;10.776;2023-06-10T16:10:19;101472.44;;;26.03;52.35
52469;BME280;38381;53.688;10.776;2023-06-10T16:15:19;101468.00;;;25.83;52.01
52469;BME280;38381;53.688;10.776;2023-06-10T16:20:19;101465.56;;;25.78;51.75
52469;BME280;38381;53.688;10.776;2023-06-10T16:25:20;101469.88;;;25.62;52.50
52469;BME280;38381;53.688;10.776;2023-06-10T16:30:21;101474.25;;;25.82;52.16
52469;BME280;38381;53.688;10.776;2023-06-10T16:35:21;101471.56;;;25.63;51.56
52469;BME280;38381;53.688;10.776;2023-06-10T16:40:22;101480.09;;;25.50;52.05
52469;BME280;38381;53.688;10.776;2023-06-10T16:45:23;101483.53;;;25.53;52.34
52469;BME280;38381;53.688;10.776;2023-06-10T16:50:23;101475.22;;;25.41;52.58
52469;BME280;38381;53.688;10.776;2023-06-10T16:55:24;101489.56;;;25.37;53.26
52469;BME280;38381;53.688;10.776;2023-06-10T17:00:24;101483.50;;;25.34;52.87
52469;BME280;38381;53.688;10.776;2023-06-10T17:05:25;101478.50;;;25.46;52.38
52469;BME280;38381;53.688;10.776;2023-06-10T17:10:25;101476.28;;;25.37;52.21
52469;BME280;38381;53.688;10.776;2023-06-10T17:15:28;101475.91;;;25.45;52.41
52469;BME280;38381;53.688;10.776;2023-06-10T17:20:30;101479.31;;;25.48;52.29
52469;BME280;38381;53.688;10.776;2023-06-10T17:25:31;101490.34;;;25.39;52.60
52469;BME280;38381;53.688;10.776;2023-06-10T17:30:31;101500.53;;;25.48;52.00
52469;BME280;38381;53.688;10.776;2023-06-10T17:35:32;101502.13;;;25.53;51.31
52469;BME280;38381;53.688;10.776;2023-06-10T17:40:32;101506.59;;;25.32;50.03
52469;BME280;38381;53.688;10.776;2023-06-10T17:45:33;101519.44;;;25.20;49.54
52469;BME280;38381;53.688;10.776;2023-06-10T17:50:33;101525.00;;;25.14;49.42
52469;BME280;38381;53.688;10.776;2023-06-10T17:55:36;101528.38;;;24.97;48.58
52469;BME280;38381;53.688;10.776;2023-06-10T18:00:37;101539.44;;;24.86;48.31
52469;BME280;38381;53.688;10.776;2023-06-10T18:05:38;101543.53;;;24.51;47.32
52469;BME280;38381;53.688;10.776;2023-06-10T18:10:38;101547.19;;;24.47;47.61
52469;BME280;38381;53.688;10.776;2023-06-10T18:15:38;101551.47;;;24.27;47.38
52469;BME280;38381;53.688;10.776;2023-06-10T18:20:39;101562.88;;;24.06;47.75
52469;BME280;38381;53.688;10.776;2023-06-10T18:25:39;101571.66;;;23.83;46.96
52469;BME280;38381;53.688;10.776;2023-06-10T18:30:40;101575.25;;;23.55;47.03
52469;BME280;38381;53.688;10.776;2023-06-10T18:35:40;101577.56;;;23.39;46.75
52469;BME280;38381;53.688;10.776;2023-06-10T18:40:41;101588.69;;;23.24;46.99
52469;BME280;38381;53.688;10.776;2023-06-10T18:45:41;101590.09;;;23.07;46.91
52469;BME280;38381;53.688;10.776;2023-06-10T18:50:42;101599.09;;;23.02;46.66
52469;BME280;38381;53.688;10.776;2023-06-10T18:55:42;101587.03;;;22.63;46.42
52469;BME280;38381;53.688;10.776;2023-06-10T19:00:42;101603.47;;;22.45;45.44
52469;BME280;38381;53.688;10.776;2023-06-10T19:05:43;101601.41;;;22.25;45.71
52469;BME280;38381;53.688;10.776;2023-06-10T19:10:43;101621.34;;;22.04;46.95
52469;BME280;38381;53.688;10.776;2023-06-10T19:15:44;101621.28;;;21.74;45.40
52469;BME280;38381;53.688;10.776;2023-06-10T19:20:44;101627.56;;;21.68;45.55
52469;BME280;38381;53.688;10.776;2023-06-10T19:25:45;101639.56;;;21.47;46.02
52469;BME280;38381;53.688;10.776;2023-06-10T19:30:45;101653.19;;;21.27;45.82
52469;BME280;38381;53.688;10.776;2023-06-10T19:35:45;101652.69;;;21.12;45.49
52469;BME280;38381;53.688;10.776;2023-06-10T19:40:46;101658.88;;;21.10;45.76
52469;BME280;38381;53.688;10.776;2023-06-10T19:45:46;101662.78;;;20.94;45.88
52469;BME280;38381;53.688;10.776;2023-06-10T19:50:47;101671.13;;;20.73;46.38
52469;BME280;38381;53.688;10.776;2023-06-10T19:55:47;101664.50;;;20.52;46.56
52469;BME280;38381;53.688;10.776;2023-06-10T20:00:48;101671.81;;;20.39;46.28
52469;BME280;38381;53.688;10.776;2023-06-10T20:05:48;101676.44;;;20.26;47.00
52469;BME280;38381;53.688;10.776;2023-06-10T20:10:48;101690.13;;;19.97;47.04
52469;BME280;38381;53.688;10.776;2023-06-10T20:15:49;101705.22;;;19.87;46.87
52469;BME280;38381;53.688;10.776;2023-06-10T20:20:49;101719.88;;;19.47;48.24
52469;BME280;38381;53.688;10.776;2023-06-10T20:25:50;101728.66;;;19.46;47.64
52469;BME280;38381;53.688;10.776;2023-06-10T20:30:51;101736.84;;;19.25;48.02
52469;BME280;38381;53.688;10.776;2023-06-10T20:35:51;101742.13;;;19.25;48.13
52469;BME280;38381;53.688;10.776;2023-06-10T20:40:52;101745.75;;;19.16;48.41
52469;BME280;38381;53.688;10.776;2023-06-10T20:45:52;101751.34;;;18.88;48.34
52469;BME280;38381;53.688;10.776;2023-06-10T20:50:52;101755.94;;;18.68;48.12
52469;BME280;38381;53.688;10.776;2023-06-10T20:55:53;101765.66;;;18.60;48.16
52469;BME280;38381;53.688;10.776;2023-06-10T21:00:53;101766.63;;;18.54;48.77
52469;BME280;38381;53.688;10.776;2023-06-10T21:05:54;101762.41;;;18.36;48.90
52469;BME280;38381;53.688;10.776;2023-06-10T21:10:54;101753.75;;;18.28;48.89
52469;BME280;38381;53.688;10.776;2023-06-10T21:15:55;101759.00;;;18.29;49.01
52469;BME280;38381;53.688;10.776;2023-06-10T21:20:55;101765.28;;;18.12;49.23
52469;BME280;38381;53.688;10.776;2023-06-10T21:25:56;101771.53;;;17.97;49.24
52469;BME280;38381;53.688;10.776;2023-06-10T21:30:56;101776.84;;;17.81;49.53
52469;BME280;38381;53.688;10.776;2023-06-10T21:35:57;101776.94;;;17.72;49.73
52469;BME280;38381;53.688;10.776;2023-06-10T21:40:58;101780.47;;;17.65;50.26
52469;BME280;38381;53.688;10.776;2023-06-10T21:45:58;101793.69;;;17.48;49.91
52469;BME280;38381;53.688;10.776;2023-06-10T21:50:59;101792.81;;;17.46;50.67
52469;BME280;38381;53.688;10.776;2023-06-10T21:56:00;101798.09;;;17.38;50.63
52469;BME280;38381;53.688;10.776;2023-06-10T22:01:00;101792.03;;;17.32;51.17
52469;BME280;38381;53.688;10.776;2023-06-10T22:06:00;101798.16;;;17.24;51.34
52469;BME280;38381;53.688;10.776;2023-06-10T22:11:01;101791.28;;;17.06;51.93
52469;BME280;38381;53.688;10.776;2023-06-10T22:16:02;101791.28;;;16.99;52.26
52469;BME280;38381;53.688;10.776;2023-06-10T22:21:02;101793.09;;;16.86;52.85
52469;BME280;38381;53.688;10.776;2023-06-10T22:26:03;101786.97;;;16.85;53.37
52469;BME280;38381;53.688;10.776;2023-06-10T22:31:04;101787.88;;;16.57;53.85
52469;BME280;38381;53.688;10.776;2023-06-10T22:36:05;101788.75;;;16.62;54.12
52469;BME280;38381;53.688;10.776;2023-06-10T22:41:05;101787.03;;;16.52;55.06
52469;BME280;38381;53.688;10.776;2023-06-10T22:46:06;101782.66;;;16.40;55.58
52469;BME280;38381;53.688;10.776;2023-06-10T22:51:06;101791.41;;;16.33;56.34
52469;BME280;38381;53.688;10.776;2023-06-10T22:56:06;101784.44;;;16.27;56.01
52469;BME280;38381;53.688;10.776;2023-06-10T23:01:07;101791.41;;;16.17;56.99
52469;BME280;38381;53.688;10.776;2023-06-10T23:06:07;101795.78;;;16.09;57.14
52469;BME280;38381;53.688;10.776;2023-06-10T23:11:08;101786.19;;;15.96;57.07
52469;BME280;38381;53.688;10.776;2023-06-10T23:16:08;101780.06;;;15.95;57.37
52469;BME280;38381;53.688;10.776;2023-06-10T23:21:09;101782.69;;;15.81;57.17
52469;BME280;38381;53.688;10.776;2023-06-10T23:26:09;101780.91;;;15.69;58.06
52469;BME280;38381;53.688;10.776;2023-06-10T23:31:10;101783.47;;;15.56;57.74
52469;BME280;38381;53.688;10.776;2023-06-10T23:36:11;101786.94;;;15.42;58.28
52469;BME280;38381;53.688;10.776;2023-06-10T23:41:12;101785.19;;;15.44;58.55
52469;BME280;38381;53.688;10.776;2023-06-10T23:46:13;101785.16;;;15.32;58.56
52469;BME280;38381;53.688;10.776;2023-06-10T23:51:13;101783.41;;;15.31;59.19
52469;BME280;38381;53.688;10.776;2023-06-10T23:56:14;101779.03;;;15.27;59.27
